sensor_id;sensor_type;location;lat;lon;timestamp;pressure;altitude;pressure_sealevel;temperature;humidity
63090;BME280;49174;43.198;27.824;2023-07-20T00:01:26;100940.25;;;22.96;97.13
63090;BME280;49174;43.198;27.824;2023-07-20T00:03:51;100932.50;;;22.88;98.30
63090;BME280;49174;43.198;27.824;2023-07-20T00:06:26;100930.84;;;22.82;97.43
63090;BME280;49174;43.198;27.824;2023-07-20T00:08:56;100922.03;;;22.80;98.83
63090;BME280;49174;43.198;27.824;2023-07-20T00:11:26;100920.66;;;22.77;96.71
63090;BME280;49174;43.198;27.824;2023-07-20T00:13:52;100928.66;;;22.73;97.41
63090;BME280;49174;43.198;27.824;2023-07-20T00:16:18;100930.25;;;22.64;97.50
63090;BME280;49174;43.198;27.824;2023-07-20T00:18:44;100935.47;;;22.56;97.93
63090;BME280;49174;43.198;27.824;2023-07-20T00:21:09;100933.53;;;22.51;98.23
63090;BME280;49174;43.198;27.824;2023-07-20T00:23:35;100936.56;;;22.44;98.82
63090;BME280;49174;43.198;27.824;2023-07-20T00:26:01;100939.31;;;22.44;98.83
63090;BME280;49174;43.198;27.824;2023-07-20T00:28:26;100944.00;;;22.44;99.42
63090;BME280;49174;43.198;27.824;2023-07-20T00:30:52;100938.47;;;22.39;100.00
63090;BME280;49174;43.198;27.824;2023-07-20T00:33:18;100938.22;;;22.40;97.38
63090;BME280;49174;43.198;27.824;2023-07-20T00:35:44;100937.38;;;22.35;96.94
63090;BME280;49174;43.198;27.824;2023-07-20T00:38:10;100936.25;;;22.30;96.61
63090;BME280;49174;43.198;27.824;2023-07-20T00:40:39;100931.56;;;22.21;96.75
63090;BME280;49174;43.198;27.824;2023-07-20T00:43:06;100934.50;;;22.14;97.79
63090;BME280;49174;43.198;27.824;2023-07-20T00:45:33;100928.16;;;22.08;99.80
63090;BME280;49174;43.198;27.824;2023-07-20T00:47:59;100930.63;;;22.05;98.23
63090;BME280;49174;43.198;27.824;2023-07-20T00:50:26;100941.31;;;21.96;99.90
63090;BME280;49174;43.198;27.824;2023-07-20T00:52:54;100944.88;;;21.92;100.00
63090;BME280;49174;43.198;27.824;2023-07-20T00:55:20;100944.28;;;21.90;100.00
63090;BME280;49174;43.198;27.824;2023-07-20T00:57:46;100939.09;;;21.88;100.00
63090;BME280;49174;43.198;27.824;2023-07-20T01:00:12;100944.88;;;21.97;100.00
63090;BME280;49174;43.198;27.824;2023-07-20T01:02:38;100944.31;;;21.95;100.00
63090;BME280;49174;43.198;27.824;2023-07-20T01:05:05;100946.78;;;21.91;100.00
63090;BME280;49174;43.198;27.824;2023-07-20T01:07:57;100942.66;;;21.89;100.00
63090;BME280;49174;43.198;27.824;2023-07-20T01:10:40;100938.25;;;21.88;100.00
63090;BME280;49174;43.198;27.824;2023-07-20T01:13:10;100936.06;;;21.90;100.00
63090;BME280;49174;43.198;27.824;2023-07-20T01:15:36;100934.44;;;21.94;100.00
63090;BME280;49174;43.198;27.824;2023-07-20T01:18:01;100929.19;;;21.92;100.00
63090;BME280;49174;43.198;27.824;2023-07-20T01:20:31;100923.44;;;21.89;100.00
63090;BME280;49174;43.198;27.824;2023-07-20T01:31:32;100965.69;;;21.82;100.00
63090;BME280;49174;43.198;27.824;2023-07-20T01:34:01;100968.44;;;21.82;100.00
63090;BME280;49174;43.198;27.824;2023-07-20T01:36:30;100962.41;;;21.85;100.00
63090;BME280;49174;43.198;27.824;2023-07-20T01:38:58;100978.09;;;21.90;100.00
63090;BME280;49174;43.198;27.824;2023-07-20T01:41:24;101024.28;;;21.93;100.00
63090;BME280;49174;43.198;27.824;2023-07-20T01:43:50;101039.94;;;21.93;100.00
63090;BME280;49174;43.198;27.824;2023-07-20T01:46:15;101055.31;;;21.94;100.00
63090;BME280;49174;43.198;27.824;2023-07-20T01:48:41;101054.78;;;21.97;100.00
63090;BME280;49174;43.198;27.824;2023-07-20T01:51:07;101052.34;;;22.05;100.00
63090;BME280;49174;43.198;27.824;2023-07-20T01:53:32;101051.28;;;22.12;100.00
63090;BME280;49174;43.198;27.824;2023-07-20T01:55:58;101052.44;;;22.16;100.00
63090;BME280;49174;43.198;27.824;2023-07-20T01:58:24;101044.50;;;22.19;100.00
63090;BME280;49174;43.198;27.824;2023-07-20T02:00:50;101045.06;;;22.21;100.00
63090;BME280;49174;43.198;27.824;2023-07-20T02:03:15;101044.53;;;22.24;100.00
63090;BME280;49174;43.198;27.824;2023-07-20T02:05:44;101034.63;;;22.23;100.00
63090;BME280;49174;43.198;27.824;2023-07-20T02:08:09;101025.81;;;22.21;100.00
63090;BME280;49174;43.198;27.824;2023-07-20T02:10:35;101039.59;;;22.26;100.00
63090;BME280;49174;43.198;27.824;2023-07-20T02:13:01;101022.53;;;22.24;100.00
63090;BME280;49174;43.198;27.824;2023-07-20T02:15:27;101020.03;;;22.23;100.00
63090;BME280;49174;43.198;27.824;2023-07-20T02:17:54;101002.72;;;22.22;100.00
63090;BME280;49174;43.198;27.824;2023-07-20T02:20:19;101004.09;;;22.20;100.00
63090;BME280;49174;43.198;27.824;2023-07-20T02:22:46;100999.41;;;22.20;100.00
63090;BME280;49174;43.198;27.824;2023-07-20T02:25:11;101001.84;;;22.17;100.00
63090;BME280;49174;43.198;27.824;2023-07-20T02:27:38;100996.63;;;22.15;100.00
63090;BME280;49174;43.198;27.824;2023-07-20T02:30:05;100990.03;;;22.16;100.00
63090;BME280;49174;43.198;27.824;2023-07-20T02:32:31;100983.97;;;22.14;100.00
63090;BME280;49174;43.198;27.824;2023-07-20T02:34:59;100989.47;;;22.14;100.00
63090;BME280;49174;43.198;27.824;2023-07-20T02:37:25;100985.34;;;22.12;100.00
63090;BME280;49174;43.198;27.824;2023-07-20T02:39:50;100987.00;;;22.13;100.00
63090;BME280;49174;43.198;27.824;2023-07-20T02:42:16;100979.03;;;22.11;100.00
63090;BME280;49174;43.198;27.824;2023-07-20T02:44:41;100971.59;;;22.06;100.00
63090;BME280;49174;43.198;27.824;2023-07-20T02:47:07;100959.75;;;22.06;100.00
63090;BME280;49174;43.198;27.824;2023-07-20T02:49:32;100953.19;;;22.07;100.00
63090;BME280;49174;43.198;27.824;2023-07-20T02:51:58;100942.22;;;22.12;100.00
63090;BME280;49174;43.198;27.824;2023-07-20T02:54:23;100941.66;;;22.10;100.00
63090;BME280;49174;43.198;27.824;2023-07-20T02:56:51;100936.13;;;22.05;100.00
63090;BME280;49174;43.198;27.824;2023-07-20T02:59:16;100946.03;;;22.06;100.00
63090;BME280;49174;43.198;27.824;2023-07-20T03:01:42;100943.28;;;22.06;100.00
63090;BME280;49174;43.198;27.824;2023-07-20T03:04:08;100936.97;;;22.05;99.99
63090;BME280;49174;43.198;27.824;2023-07-20T03:06:36;100928.16;;;22.08;99.92
63090;BME280;49174;43.198;27.824;2023-07-20T03:09:02;100926.84;;;22.16;98.69
63090;BME280;49174;43.198;27.824;2023-07-20T03:11:27;100907.59;;;22.16;99.15
63090;BME280;49174;43.198;27.824;2023-07-20T03:13:53;100899.97;;;22.23;98.27
63090;BME280;49174;43.198;27.824;2023-07-20T03:16:19;100893.09;;;22.26;98.07
63090;BME280;49174;43.198;27.824;2023-07-20T03:18:44;100887.59;;;22.26;96.25
63090;BME280;49174;43.198;27.824;2023-07-20T03:21:11;100880.16;;;22.21;96.89
63090;BME280;49174;43.198;27.824;2023-07-20T03:23:38;100870.53;;;22.19;98.38
63090;BME280;49174;43.198;27.824;2023-07-20T03:26:04;100867.78;;;22.19;98.15
63090;BME280;49174;43.198;27.824;2023-07-20T03:28:29;100875.50;;;22.22;97.06
63090;BME280;49174;43.198;27.824;2023-07-20T03:30:56;100866.44;;;22.26;97.00
63090;BME280;49174;43.198;27.824;2023-07-20T03:33:24;100840.34;;;22.29;97.11
63090;BME280;49174;43.198;27.824;2023-07-20T03:35:50;100830.69;;;22.37;97.00
63090;BME280;49174;43.198;27.824;2023-07-20T03:38:16;100810.09;;;22.39;97.49
63090;BME280;49174;43.198;27.824;2023-07-20T03:40:52;100805.72;;;22.43;97.38
63090;BME280;49174;43.198;27.824;2023-07-20T03:43:18;100796.06;;;22.51;96.54
63090;BME280;49174;43.198;27.824;2023-07-20T03:45:44;100785.63;;;22.58;96.12
63090;BME280;49174;43.198;27.824;2023-07-20T03:48:11;100765.81;;;22.66;95.91
63090;BME280;49174;43.198;27.824;2023-07-20T03:50:37;100751.50;;;22.74;96.02
63090;BME280;49174;43.198;27.824;2023-07-20T03:53:03;100744.63;;;22.82;94.46
63090;BME280;49174;43.198;27.824;2023-07-20T03:55:28;100756.13;;;22.94;93.88
63090;BME280;49174;43.198;27.824;2023-07-20T03:57:54;100767.97;;;23.05;93.23
63090;BME280;49174;43.198;27.824;2023-07-20T04:00:20;100772.88;;;23.18;94.01
63090;BME280;49174;43.198;27.824;2023-07-20T04:02:45;100782.75;;;23.30;93.42
63090;BME280;49174;43.198;27.824;2023-07-20T04:05:11;100789.06;;;23.35;93.05
63090;BME280;49174;43.198;27.824;2023-07-20T04:07:36;100799.19;;;23.45;92.69
63090;BME280;49174;43.198;27.824;2023-07-20T04:10:02;100806.88;;;23.53;93.08
63090;BME280;49174;43.198;27.824;2023-07-20T04:12:28;100811.81;;;23.61;94.21
63090;BME280;49174;43.198;27.824;2023-07-20T04:14:54;100805.16;;;23.68;93.83
63090;BME280;49174;43.198;27.824;2023-07-20T04:17:20;100807.34;;;23.76;93.89
63090;BME280;49174;43.198;27.824;2023-07-20T04:19:46;100792.72;;;23.85;89.92
63090;BME280;49174;43.198;27.824;2023-07-20T04:22:13;100796.50;;;23.95;90.32
63090;BME280;49174;43.198;27.824;2023-07-20T04:24:42;100806.97;;;23.98;90.74
63090;BME280;49174;43.198;27.824;2023-07-20T04:27:08;100806.69;;;23.99;91.14
63090;BME280;49174;43.198;27.824;2023-07-20T04:29:33;100808.31;;;24.00;91.15
63090;BME280;49174;43.198;27.824;2023-07-20T04:31:59;100808.88;;;24.02;91.49
63090;BME280;49174;43.198;27.824;2023-07-20T04:34:24;100826.50;;;24.01;90.25
63090;BME280;49174;43.198;27.824;2023-07-20T04:36:49;100840.84;;;23.98;90.25
63090;BME280;49174;43.198;27.824;2023-07-20T04:39:15;100845.00;;;23.96;90.37
63090;BME280;49174;43.198;27.824;2023-07-20T04:41:41;100859.63;;;23.96;90.03
63090;BME280;49174;43.198;27.824;2023-07-20T04:44:06;100862.38;;;23.96;89.63
63090;BME280;49174;43.198;27.824;2023-07-20T04:46:32;100857.09;;;24.00;89.43
63090;BME280;49174;43.198;27.824;2023-07-20T04:48:58;100860.13;;;24.03;89.29
63090;BME280;49174;43.198;27.824;2023-07-20T04:51:24;100855.94;;;24.11;88.44
63090;BME280;49174;43.198;27.824;2023-07-20T04:53:49;100853.41;;;24.20;80.26
63090;BME280;49174;43.198;27.824;2023-07-20T04:56:15;100859.38;;;24.32;81.67
63090;BME280;49174;43.198;27.824;2023-07-20T04:58:40;100859.91;;;24.44;82.24
63090;BME280;49174;43.198;27.824;2023-07-20T05:01:08;100861.47;;;24.56;82.38
63090;BME280;49174;43.198;27.824;2023-07-20T05:03:33;100859.16;;;24.68;79.51
63090;BME280;49174;43.198;27.824;2023-07-20T05:05:59;100858.50;;;24.81;82.25
63090;BME280;49174;43.198;27.824;2023-07-20T05:08:25;100882.16;;;24.87;80.18
63090;BME280;49174;43.198;27.824;2023-07-20T05:10:50;100906.09;;;24.97;79.21
63090;BME280;49174;43.198;27.824;2023-07-20T05:13:16;100931.72;;;25.03;81.21
63090;BME280;49174;43.198;27.824;2023-07-20T05:15:42;100943.81;;;25.07;81.06
63090;BME280;49174;43.198;27.824;2023-07-20T05:18:07;100940.47;;;25.15;81.45
63090;BME280;49174;43.198;27.824;2023-07-20T05:20:34;100930.75;;;25.23;79.95
63090;BME280;49174;43.198;27.824;2023-07-20T05:23:00;100938.16;;;25.27;76.84
63090;BME280;49174;43.198;27.824;2023-07-20T05:25:26;100921.47;;;25.37;77.25
63090;BME280;49174;43.198;27.824;2023-07-20T05:27:52;100928.53;;;25.49;71.43
63090;BME280;49174;43.198;27.824;2023-07-20T05:30:17;100930.97;;;25.55;73.32
63090;BME280;49174;43.198;27.824;2023-07-20T05:32:44;100935.84;;;25.63;76.37
63090;BME280;49174;43.198;27.824;2023-07-20T05:35:13;100929.38;;;25.73;78.75
63090;BME280;49174;43.198;27.824;2023-07-20T05:37:40;100914.38;;;25.79;78.52
63090;BME280;49174;43.198;27.824;2023-07-20T05:40:06;100922.38;;;25.86;78.23
63090;BME280;49174;43.198;27.824;2023-07-20T05:42:33;100924.97;;;25.96;78.06
63090;BME280;49174;43.198;27.824;2023-07-20T05:44:58;100929.03;;;26.04;78.14
63090;BME280;49174;43.198;27.824;2023-07-20T05:47:24;100938.91;;;26.10;76.73
63090;BME280;49174;43.198;27.824;2023-07-20T05:49:50;100934.38;;;26.19;76.96
63090;BME280;49174;43.198;27.824;2023-07-20T05:52:15;100935.13;;;26.25;71.94
63090;BME280;49174;43.198;27.824;2023-07-20T05:54:41;100940.88;;;26.28;70.59
63090;BME280;49174;43.198;27.824;2023-07-20T05:57:07;100933.56;;;26.38;70.69
63090;BME280;49174;43.198;27.824;2023-07-20T05:59:33;100933.19;;;26.44;70.72
63090;BME280;49174;43.198;27.824;2023-07-20T06:01:58;100928.94;;;26.52;70.84
63090;BME280;49174;43.198;27.824;2023-07-20T06:04:24;100939.88;;;26.62;71.73
63090;BME280;49174;43.198;27.824;2023-07-20T06:06:49;100946.59;;;26.75;70.22
63090;BME280;49174;43.198;27.824;2023-07-20T06:09:15;100947.41;;;26.94;70.13
63090;BME280;49174;43.198;27.824;2023-07-20T06:11:40;100946.47;;;27.18;68.81
63090;BME280;49174;43.198;27.824;2023-07-20T06:14:06;100959.56;;;27.45;68.58
63090;BME280;49174;43.198;27.824;2023-07-20T06:16:32;100964.00;;;27.74;68.18
63090;BME280;49174;43.198;27.824;2023-07-20T06:19:00;100961.78;;;28.03;65.80
63090;BME280;49174;43.198;27.824;2023-07-20T06:21:26;100968.75;;;28.28;65.94
63090;BME280;49174;43.198;27.824;2023-07-20T06:23:51;100973.25;;;28.38;62.38
63090;BME280;49174;43.198;27.824;2023-07-20T06:26:17;100970.47;;;28.38;56.79
63090;BME280;49174;43.198;27.824;2023-07-20T06:28:42;100980.03;;;28.32;56.37
63090;BME280;49174;43.198;27.824;2023-07-20T06:31:08;100984.06;;;28.26;54.52
63090;BME280;49174;43.198;27.824;2023-07-20T06:33:33;100989.19;;;28.19;54.36
63090;BME280;49174;43.198;27.824;2023-07-20T06:36:00;100991.06;;;28.10;55.13
63090;BME280;49174;43.198;27.824;2023-07-20T06:38:25;100996.50;;;28.01;55.44
63090;BME280;49174;43.198;27.824;2023-07-20T06:40:51;100998.38;;;27.92;55.38
63090;BME280;49174;43.198;27.824;2023-07-20T06:43:16;100978.44;;;27.90;55.44
63090;BME280;49174;43.198;27.824;2023-07-20T06:45:42;100985.22;;;27.83;56.13
63090;BME280;49174;43.198;27.824;2023-07-20T06:48:07;100983.88;;;27.81;56.93
63090;BME280;49174;43.198;27.824;2023-07-20T06:50:33;100973.84;;;27.66;54.95
63090;BME280;49174;43.198;27.824;2023-07-20T06:52:59;100964.19;;;27.63;55.15
63090;BME280;49174;43.198;27.824;2023-07-20T06:55:25;100947.88;;;27.62;56.88
63090;BME280;49174;43.198;27.824;2023-07-20T06:57:51;100936.28;;;27.60;57.11
63090;BME280;49174;43.198;27.824;2023-07-20T07:00:19;100928.38;;;27.53;57.75
63090;BME280;49174;43.198;27.824;2023-07-20T07:02:45;100920.69;;;27.50;60.61
63090;BME280;49174;43.198;27.824;2023-07-20T07:05:10;100906.31;;;27.48;65.11
63090;BME280;49174;43.198;27.824;2023-07-20T07:07:36;100900.84;;;27.43;67.34
63090;BME280;49174;43.198;27.824;2023-07-20T07:10:02;100891.53;;;27.39;69.08
63090;BME280;49174;43.198;27.824;2023-07-20T07:12:30;100871.31;;;27.25;70.06
63090;BME280;49174;43.198;27.824;2023-07-20T07:14:56;100872.00;;;27.16;72.04
63090;BME280;49174;43.198;27.824;2023-07-20T07:17:21;100882.75;;;27.18;72.90
63090;BME280;49174;43.198;27.824;2023-07-20T07:19:47;100889.84;;;27.24;75.21
63090;BME280;49174;43.198;27.824;2023-07-20T07:22:12;100902.50;;;27.30;74.97
63090;BME280;49174;43.198;27.824;2023-07-20T07:24:39;100924.16;;;27.42;74.73
63090;BME280;49174;43.198;27.824;2023-07-20T07:27:08;100929.31;;;27.62;73.14
63090;BME280;49174;43.198;27.824;2023-07-20T07:29:34;100927.69;;;27.75;68.74
63090;BME280;49174;43.198;27.824;2023-07-20T07:31:59;100938.19;;;27.92;64.55
63090;BME280;49174;43.198;27.824;2023-07-20T07:34:25;100942.28;;;27.95;65.95
63090;BME280;49174;43.198;27.824;2023-07-20T07:36:51;100945.53;;;27.97;65.34
63090;BME280;49174;43.198;27.824;2023-07-20T07:39:17;100928.28;;;28.00;65.90
63090;BME280;49174;43.198;27.824;2023-07-20T07:41:42;100934.84;;;28.18;65.49
63090;BME280;49174;43.198;27.824;2023-07-20T07:44:08;100933.91;;;28.36;62.17
63090;BME280;49174;43.198;27.824;2023-07-20T07:46:33;100932.69;;;28.42;60.65
63090;BME280;49174;43.198;27.824;2023-07-20T07:48:59;100925.97;;;28.43;58.54
63090;BME280;49174;43.198;27.824;2023-07-20T07:51:24;100927.97;;;28.65;58.57
63090;BME280;49174;43.198;27.824;2023-07-20T07:53:52;100934.03;;;28.67;55.24
63090;BME280;49174;43.198;27.824;2023-07-20T07:56:18;100933.13;;;28.58;53.39
63090;BME280;49174;43.198;27.824;2023-07-20T07:58:48;100934.72;;;28.50;53.83
63090;BME280;49174;43.198;27.824;2023-07-20T08:01:14;100929.91;;;28.42;54.67
63090;BME280;49174;43.198;27.824;2023-07-20T08:03:40;100922.41;;;28.29;55.29
63090;BME280;49174;43.198;27.824;2023-07-20T08:06:05;100925.78;;;28.26;55.54
63090;BME280;49174;43.198;27.824;2023-07-20T08:08:32;100912.75;;;28.26;56.40
63090;BME280;49174;43.198;27.824;2023-07-20T08:10:58;100918.09;;;28.23;56.06
63090;BME280;49174;43.198;27.824;2023-07-20T08:13:23;100918.81;;;28.28;56.66
63090;BME280;49174;43.198;27.824;2023-07-20T08:15:50;100917.75;;;28.38;58.62
63090;BME280;49174;43.198;27.824;2023-07-20T08:18:19;100909.34;;;28.43;59.21
63090;BME280;49174;43.198;27.824;2023-07-20T08:20:47;100917.72;;;28.52;60.81
63090;BME280;49174;43.198;27.824;2023-07-20T08:23:13;100917.94;;;28.56;57.07
63090;BME280;49174;43.198;27.824;2023-07-20T08:25:39;100921.41;;;28.61;56.08
63090;BME280;49174;43.198;27.824;2023-07-20T08:28:14;100908.03;;;28.63;55.86
63090;BME280;49174;43.198;27.824;2023-07-20T08:30:44;100925.72;;;28.67;56.14
63090;BME280;49174;43.198;27.824;2023-07-20T08:33:12;100917.25;;;28.72;55.42
63090;BME280;49174;43.198;27.824;2023-07-20T08:35:37;100915.72;;;28.89;55.83
63090;BME280;49174;43.198;27.824;2023-07-20T08:38:03;100918.16;;;29.04;55.26
63090;BME280;49174;43.198;27.824;2023-07-20T08:40:31;100921.66;;;29.18;55.78
63090;BME280;49174;43.198;27.824;2023-07-20T08:42:58;100917.91;;;29.14;54.16
63090;BME280;49174;43.198;27.824;2023-07-20T08:45:26;100909.22;;;29.16;53.24
63090;BME280;49174;43.198;27.824;2023-07-20T08:47:55;100903.41;;;29.26;52.80
63090;BME280;49174;43.198;27.824;2023-07-20T08:50:22;100904.97;;;29.50;56.04
63090;BME280;49174;43.198;27.824;2023-07-20T08:52:48;100908.34;;;29.69;54.81
63090;BME280;49174;43.198;27.824;2023-07-20T08:55:15;100911.38;;;29.99;51.40
63090;BME280;49174;43.198;27.824;2023-07-20T08:57:41;100901.63;;;30.45;52.59
63090;BME280;49174;43.198;27.824;2023-07-20T09:00:09;100893.59;;;30.69;47.55
63090;BME280;49174;43.198;27.824;2023-07-20T09:02:39;100893.28;;;30.88;47.07
63090;BME280;49174;43.198;27.824;2023-07-20T09:05:08;100894.22;;;31.10;48.77
63090;BME280;49174;43.198;27.824;2023-07-20T09:07:39;100880.22;;;31.36;45.54
63090;BME280;49174;43.198;27.824;2023-07-20T09:10:06;100884.19;;;31.65;44.11
63090;BME280;49174;43.198;27.824;2023-07-20T09:12:35;100888.53;;;31.83;43.72
63090;BME280;49174;43.198;27.824;2023-07-20T09:15:00;100884.09;;;32.12;42.67
63090;BME280;49174;43.198;27.824;2023-07-20T09:17:26;100876.75;;;32.28;42.80
63090;BME280;49174;43.198;27.824;2023-07-20T09:19:52;100882.00;;;32.51;42.15
63090;BME280;49174;43.198;27.824;2023-07-20T09:22:17;100883.28;;;32.74;43.83
63090;BME280;49174;43.198;27.824;2023-07-20T09:24:43;100871.84;;;33.00;43.04
63090;BME280;49174;43.198;27.824;2023-07-20T09:27:10;100875.72;;;33.20;41.15
63090;BME280;49174;43.198;27.824;2023-07-20T09:29:56;100872.47;;;33.43;41.97
63090;BME280;49174;43.198;27.824;2023-07-20T09:32:22;100863.97;;;33.51;39.53
63090;BME280;49174;43.198;27.824;2023-07-20T09:34:49;100862.56;;;33.45;38.87
63090;BME280;49174;43.198;27.824;2023-07-20T09:37:20;100867.25;;;33.53;41.84
63090;BME280;49174;43.198;27.824;2023-07-20T09:39:46;100866.00;;;33.63;39.87
63090;BME280;49174;43.198;27.824;2023-07-20T09:42:12;100856.97;;;33.82;40.41
63090;BME280;49174;43.198;27.824;2023-07-20T09:44:40;100856.97;;;33.94;37.86
63090;BME280;49174;43.198;27.824;2023-07-20T09:47:08;100847.78;;;33.94;38.46
63090;BME280;49174;43.198;27.824;2023-07-20T09:49:39;100849.75;;;34.06;36.46
63090;BME280;49174;43.198;27.824;2023-07-20T09:52:05;100848.66;;;34.22;38.87
63090;BME280;49174;43.198;27.824;2023-07-20T09:54:31;100844.81;;;34.43;37.80
63090;BME280;49174;43.198;27.824;2023-07-20T09:56:58;100851.09;;;34.52;38.49
63090;BME280;49174;43.198;27.824;2023-07-20T09:59:24;100849.88;;;34.65;35.81
63090;BME280;49174;43.198;27.824;2023-07-20T10:01:53;100839.19;;;34.55;35.42
63090;BME280;49174;43.198;27.824;2023-07-20T10:04:21;100838.25;;;34.63;37.29
63090;BME280;49174;43.198;27.824;2023-07-20T10:06:49;100835.38;;;34.91;36.34
63090;BME280;49174;43.198;27.824;2023-07-20T10:09:18;100838.91;;;35.04;35.51
63090;BME280;49174;43.198;27.824;2023-07-20T10:11:49;100842.03;;;35.15;36.88
63090;BME280;49174;43.198;27.824;2023-07-20T10:14:20;100831.53;;;35.28;36.61
63090;BME280;49174;43.198;27.824;2023-07-20T10:16:54;100825.88;;;35.44;34.56
63090;BME280;49174;43.198;27.824;2023-07-20T10:19:28;100815.41;;;35.41;34.89
63090;BME280;49174;43.198;27.824;2023-07-20T10:22:14;100818.66;;;35.58;35.20
63090;BME280;49174;43.198;27.824;2023-07-20T10:24:45;100814.84;;;35.67;35.15
63090;BME280;49174;43.198;27.824;2023-07-20T10:27:11;100805.94;;;35.80;35.45
63090;BME280;49174;43.198;27.824;2023-07-20T10:29:37;100804.97;;;35.92;36.48
63090;BME280;49174;43.198;27.824;2023-07-20T10:32:03;100806.94;;;36.08;35.99
63090;BME280;49174;43.198;27.824;2023-07-20T10:34:30;100802.06;;;36.24;34.34
63090;BME280;49174;43.198;27.824;2023-07-20T10:36:55;100801.94;;;36.17;34.47
63090;BME280;49174;43.198;27.824;2023-07-20T10:39:25;100793.50;;;36.17;34.95
63090;BME280;49174;43.198;27.824;2023-07-20T10:42:09;100785.50;;;36.19;34.21
63090;BME280;49174;43.198;27.824;2023-07-20T10:44:39;100789.50;;;36.18;34.87
63090;BME280;49174;43.198;27.824;2023-07-20T10:47:13;100781.75;;;36.11;34.49
63090;BME280;49174;43.198;27.824;2023-07-20T10:49:58;100776.19;;;36.15;34.38
63090;BME280;49174;43.198;27.824;2023-07-20T10:52:24;100787.25;;;36.27;34.40
63090;BME280;49174;43.198;27.824;2023-07-20T10:54:50;100774.72;;;36.21;35.17
63090;BME280;49174;43.198;27.824;2023-07-20T10:57:30;100772.78;;;36.25;35.01
63090;BME280;49174;43.198;27.824;2023-07-20T11:00:10;100771.00;;;36.56;34.00
63090;BME280;49174;43.198;27.824;2023-07-20T11:02:48;100757.88;;;36.86;33.87
63090;BME280;49174;43.198;27.824;2023-07-20T11:05:33;100756.19;;;36.82;32.90
63090;BME280;49174;43.198;27.824;2023-07-20T11:08:03;100754.63;;;36.84;33.90
63090;BME280;49174;43.198;27.824;2023-07-20T11:10:29;100747.44;;;37.10;34.82
63090;BME280;49174;43.198;27.824;2023-07-20T11:13:18;100739.50;;;37.16;32.19
63090;BME280;49174;43.198;27.824;2023-07-20T11:16:06;100739.94;;;37.18;33.80
63090;BME280;49174;43.198;27.824;2023-07-20T11:18:33;100732.19;;;37.38;33.06
63090;BME280;49174;43.198;27.824;2023-07-20T11:20:59;100736.50;;;37.58;33.88
63090;BME280;49174;43.198;27.824;2023-07-20T11:23:25;100728.16;;;37.65;32.34
63090;BME280;49174;43.198;27.824;2023-07-20T11:25:51;100728.28;;;37.46;31.34
63090;BME280;49174;43.198;27.824;2023-07-20T11:28:17;100705.53;;;37.28;30.66
63090;BME280;49174;43.198;27.824;2023-07-20T11:30:42;100707.22;;;37.36;33.72
63090;BME280;49174;43.198;27.824;2023-07-20T11:33:08;100710.41;;;37.61;33.00
63090;BME280;49174;43.198;27.824;2023-07-20T11:35:48;100705.47;;;37.85;32.31
63090;BME280;49174;43.198;27.824;2023-07-20T11:38:16;100687.94;;;37.95;32.06
63090;BME280;49174;43.198;27.824;2023-07-20T11:40:45;100684.81;;;38.04;31.70
63090;BME280;49174;43.198;27.824;2023-07-20T11:43:15;100688.09;;;38.09;30.81
63090;BME280;49174;43.198;27.824;2023-07-20T11:45:40;100687.66;;;38.07;31.15
63090;BME280;49174;43.198;27.824;2023-07-20T11:48:06;100685.72;;;38.15;30.41
63090;BME280;49174;43.198;27.824;2023-07-20T11:50:32;100684.94;;;38.14;30.70
63090;BME280;49174;43.198;27.824;2023-07-20T11:53:03;100685.06;;;38.29;31.21
63090;BME280;49174;43.198;27.824;2023-07-20T11:55:29;100673.00;;;38.32;31.44
63090;BME280;49174;43.198;27.824;2023-07-20T11:58:05;100677.19;;;38.45;32.76
63090;BME280;49174;43.198;27.824;2023-07-20T12:00:32;100679.72;;;38.57;29.69
63090;BME280;49174;43.198;27.824;2023-07-20T12:02:58;100674.84;;;38.54;31.09
63090;BME280;49174;43.198;27.824;2023-07-20T12:05:24;100679.72;;;38.57;28.40
63090;BME280;49174;43.198;27.824;2023-07-20T12:07:51;100690.97;;;38.57;28.96
63090;BME280;49174;43.198;27.824;2023-07-20T12:10:26;100691.00;;;38.61;29.46
63090;BME280;49174;43.198;27.824;2023-07-20T12:12:52;100692.47;;;38.44;28.26
63090;BME280;49174;43.198;27.824;2023-07-20T12:15:24;100674.00;;;38.50;28.21
63090;BME280;49174;43.198;27.824;2023-07-20T12:17:56;100670.38;;;38.09;32.19
63090;BME280;49174;43.198;27.824;2023-07-20T12:20:32;100667.31;;;36.28;36.62
63090;BME280;49174;43.198;27.824;2023-07-20T12:23:08;100670.88;;;36.71;36.48
63090;BME280;49174;43.198;27.824;2023-07-20T12:25:43;100661.69;;;37.00;36.65
63090;BME280;49174;43.198;27.824;2023-07-20T12:28:13;100668.19;;;36.78;36.18
63090;BME280;49174;43.198;27.824;2023-07-20T12:30:40;100668.91;;;36.52;37.33
63090;BME280;49174;43.198;27.824;2023-07-20T12:33:07;100683.34;;;36.50;37.95
63090;BME280;49174;43.198;27.824;2023-07-20T12:35:33;100675.19;;;36.41;37.77
63090;BME280;49174;43.198;27.824;2023-07-20T12:38:00;100674.22;;;35.91;39.09
63090;BME280;49174;43.198;27.824;2023-07-20T12:40:26;100677.97;;;35.79;41.93
63090;BME280;49174;43.198;27.824;2023-07-20T12:42:51;100675.22;;;35.44;40.04
63090;BME280;49174;43.198;27.824;2023-07-20T12:45:17;100672.50;;;35.12;40.77
63090;BME280;49174;43.198;27.824;2023-07-20T12:47:43;100673.16;;;34.74;42.84